Share

Tanana, AK (99777)

Calhoun Memorial (PATA) Elev 220 ft | 65.18 °N, 152.11 °W | Change Station

Current weather conditions updated 12 minutes ago

Scattered Clouds
Scattered Clouds
44 °F
Feels Like 39 °F
N
9
Wind Variable Wind from East
Sunrise 6:22 AM
Sunset 9:54 PM
Moon Waning Gibbous

Tomorrow is forecast to be Much Cooler than today.

Pressure 29.43 in
Visibility 10.0 miles
Clouds Few 4500 ft
Scattered Clouds 14000 ft
Windchill 39 °F
Dew Point 31 °F
Humidity 60%
Rainfall 0.00 in
Snow Depth Not available.
UV 1 out of 16
Pollen Not available.
Air Quality Not available.
Flu Activity Sporadic
METAR PATA 180252Z 10008KT 10SM FEW045 SCT140 07/M01 A2942 RMK AO2 SLP966 T00671006 58009 PNO

More Conditions Fewer Conditions

Pressure 29.43 in
Visibility 10.0 miles
Clouds Few 4500 ft
Scattered Clouds 14000 ft
Windchill 39 °F
Dew Point 31 °F
Humidity 60%
Rainfall 0.00 in
Snow Depth Not available.
UV 1 out of 16
Pollen Not available.
Air Quality Not available.
Flu Activity Sporadic
METAR PATA 180252Z 10008KT 10SM FEW045 SCT140 07/M01 A2942 RMK AO2 SLP966 T00671006 58009 PNO

More Conditions Fewer Conditions

10-Day Forecast

Almanac

Astronomy

Apr. 17, 2014 Rise Set
Actual Time 6:22 AM AKDT 9:54 PM AKDT
Civil Twilight 5:21 AM AKDT 10:55 PM AKDT
Nautical Twilight 3:44 AM AKDT 12:36 AM AKDT
Astronomical Twilight Sun does not rise Sun does not rise
Moon 12:29 AM AKDT (4/17) 7:14 AM AKDT (4/17)
Length of Visible Light 17h 33m
Length of Day
15h 31m
Tomorrow will be 7m 5s longer.
Waning Gibbous, 91% of the Moon is Illuminated
Today
Waning Gibbous
Apr 22
Last Quarter
Apr 29
New
May 6
First Quarter
May 14
Full

Today's Extremes

State Highs State Lows

Community

  • SUNRISE THROUGH THE TREES.
    SUNRISE THROUGH THE TREES.
  • Dog Wood Blossoms
    Dog Wood Blossoms
  • Morning Light
    Morning Light
  • New Day
    New Day
  • Lake Michigan Sunrise
    Lake Michigan Sunrise

WunderPhotos

Upload Photos

1,702,234 photos uploaded!

WunderBlogs® & News

Nearby

Snow Depth

Station Depth Elevation
Gobblers Knob 8 in 2030 ft
Coldfoot 27 in 1040 ft
Little Chena Ridge 15 in 2000 ft
Mt. Ryan 26 in 2800 ft
Munson Ridge 40 in 3100 ft

Coastal Water Temperatures

Place Temperature
No Stations Reporting

Earthquake Activity

City Distance Mag. Time & Date
No recent earthquake activity has been reported nearby.
Minimum magnitude displayed is 2.5.

Nearby Weather Stations

There are no personal weather stations in this area.

What do you think?

We're not finished. Please let us know what you like, what you don't like, and what you are still missing.